createdAt,value
2023-04-24T00:00:46.288Z,67.10
2023-04-24T00:01:46.312Z,67.10
2023-04-24T00:02:46.370Z,67.10
2023-04-24T00:03:46.356Z,67.10
2023-04-24T00:04:46.388Z,67.10
2023-04-24T00:05:46.219Z,67.10
2023-04-24T00:06:46.208Z,67.10
2023-04-24T00:07:46.193Z,67.10
2023-04-24T00:08:46.189Z,67.10
2023-04-24T00:09:46.556Z,67.10
2023-04-24T00:10:46.170Z,67.10
2023-04-24T00:11:46.171Z,67.10
2023-04-24T00:12:46.146Z,67.10
2023-04-24T00:13:46.130Z,67.10
2023-04-24T00:14:46.122Z,67.10
2023-04-24T00:15:46.322Z,66.99
2023-04-24T00:16:46.138Z,67.10
2023-04-24T00:17:46.186Z,67.10
2023-04-24T00:18:46.093Z,67.10
2023-04-24T00:19:46.075Z,67.10
2023-04-24T00:20:46.079Z,67.10
2023-04-24T00:21:46.079Z,67.10
2023-04-24T00:22:46.031Z,67.10
2023-04-24T00:23:46.027Z,67.10
2023-04-24T00:24:46.019Z,67.10
2023-04-24T00:25:46.013Z,67.10
2023-04-24T00:26:46.017Z,66.99
2023-04-24T00:27:45.988Z,66.99
2023-04-24T00:28:45.968Z,66.99
2023-04-24T00:29:45.960Z,66.99
2023-04-24T00:30:45.948Z,66.99
2023-04-24T00:31:45.998Z,66.99
2023-04-24T00:32:45.947Z,66.99
2023-04-24T00:33:45.920Z,66.99
2023-04-24T00:34:45.919Z,66.99
2023-04-24T00:35:45.893Z,66.99
2023-04-24T00:36:45.951Z,66.99
2023-04-24T00:37:45.877Z,66.99
2023-04-24T00:38:45.881Z,66.99
2023-04-24T00:39:46.028Z,66.99
2023-04-24T00:40:45.839Z,66.99
2023-04-24T00:41:45.830Z,66.99
2023-04-24T00:42:45.835Z,66.99
2023-04-24T00:43:45.959Z,66.99
2023-04-24T00:44:45.797Z,67.02
2023-04-24T00:45:45.821Z,66.99
2023-04-24T00:46:45.844Z,67.02
2023-04-24T00:47:45.824Z,66.99
2023-04-24T00:48:45.758Z,66.99
2023-04-24T00:49:46.096Z,67.02
2023-04-24T00:50:45.732Z,67.02
2023-04-24T00:51:45.718Z,67.02
2023-04-24T00:52:45.781Z,67.02
2023-04-24T00:53:45.698Z,66.99
2023-04-24T00:54:45.690Z,66.99
2023-04-24T00:55:45.680Z,66.99
2023-04-24T00:56:45.667Z,67.02
2023-04-24T00:57:45.698Z,66.99
2023-04-24T00:58:45.646Z,67.02
2023-04-24T00:59:45.657Z,66.99
2023-04-24T01:00:45.620Z,66.99
2023-04-24T01:01:45.689Z,67.02
2023-04-24T01:02:45.754Z,67.02
2023-04-24T01:03:45.756Z,66.99
2023-04-24T01:04:45.619Z,67.02
2023-04-24T01:05:45.618Z,66.99
2023-04-24T01:06:45.559Z,67.02
2023-04-24T01:07:45.556Z,67.02
2023-04-24T01:08:45.558Z,66.99
2023-04-24T01:09:45.607Z,67.02
2023-04-24T01:10:45.644Z,67.02
2023-04-24T01:11:45.504Z,66.99
2023-04-24T01:12:45.494Z,67.02
2023-04-24T01:13:45.486Z,67.02
2023-04-24T01:14:45.651Z,67.02
2023-04-24T01:15:45.466Z,67.02
2023-04-24T01:16:45.449Z,67.02
2023-04-24T01:17:45.530Z,67.02
2023-04-24T01:18:45.441Z,66.89
2023-04-24T01:19:45.547Z,66.89
2023-04-24T01:20:45.435Z,67.02
2023-04-24T01:21:45.400Z,67.02
2023-04-24T01:22:45.404Z,67.02
2023-04-24T01:23:45.378Z,67.02
2023-04-24T01:24:45.449Z,67.02
2023-04-24T01:25:45.436Z,67.02
2023-04-24T01:26:45.342Z,67.02
2023-04-24T01:27:45.342Z,67.02
2023-04-24T01:28:45.345Z,67.02
2023-04-24T01:29:45.436Z,67.02
2023-04-24T01:30:45.369Z,67.02
2023-04-24T01:31:45.356Z,67.02
2023-04-24T01:32:45.422Z,67.02
2023-04-24T01:33:45.270Z,66.99
2023-04-24T01:34:45.257Z,67.02
2023-04-24T01:35:45.248Z,67.02
2023-04-24T01:36:45.283Z,67.02
2023-04-24T01:37:45.248Z,67.02
2023-04-24T01:38:45.214Z,67.02
2023-04-24T01:39:45.398Z,66.99
2023-04-24T01:40:45.214Z,67.02
2023-04-24T01:41:45.275Z,67.02
2023-04-24T01:42:45.171Z,67.02
2023-04-24T01:43:45.158Z,67.02
2023-04-24T01:44:45.260Z,67.02
2023-04-24T01:45:45.138Z,67.02
2023-04-24T01:46:45.156Z,67.02
2023-04-24T01:47:45.146Z,67.02
2023-04-24T01:48:45.126Z,67.02
2023-04-24T01:49:45.411Z,67.02
2023-04-24T01:50:45.107Z,67.02
2023-04-24T01:51:45.072Z,67.02
2023-04-24T01:52:45.097Z,67.02
2023-04-24T01:53:45.061Z,67.02
2023-04-24T01:54:45.042Z,67.02
2023-04-24T01:55:45.032Z,67.02
2023-04-24T01:56:45.072Z,67.02
2023-04-24T01:57:45.008Z,67.02
2023-04-24T01:58:44.995Z,67.02
2023-04-24T01:59:45.184Z,67.02
2023-04-24T02:00:45.001Z,67.02
2023-04-24T02:01:45.003Z,67.02
2023-04-24T02:02:47.925Z,67.02
2023-04-24T02:03:45.296Z,67.02
2023-04-24T02:04:44.928Z,67.02
2023-04-24T02:05:44.919Z,67.02
2023-04-24T02:06:44.908Z,67.02
2023-04-24T02:07:44.932Z,67.02
2023-04-24T02:08:44.886Z,67.02
2023-04-24T02:09:45.034Z,67.02
2023-04-24T02:10:44.864Z,67.02
2023-04-24T02:11:44.873Z,67.02
2023-04-24T02:12:44.986Z,67.02
2023-04-24T02:13:44.837Z,66.93
2023-04-24T02:14:44.818Z,67.02
2023-04-24T02:15:44.823Z,66.93
2023-04-24T02:16:44.888Z,66.93
2023-04-24T02:17:44.800Z,67.02
2023-04-24T02:18:44.809Z,66.93
2023-04-24T02:19:44.898Z,67.02
2023-04-24T02:20:44.759Z,67.02
2023-04-24T02:21:44.753Z,66.93
2023-04-24T02:22:44.767Z,66.93
2023-04-24T02:23:44.745Z,66.93
2023-04-24T02:24:44.711Z,66.93
2023-04-24T02:25:44.695Z,66.93
2023-04-24T02:26:44.690Z,66.93
2023-04-24T02:27:44.700Z,66.93
2023-04-24T02:28:44.702Z,66.93
2023-04-24T02:29:44.990Z,66.93
2023-04-24T02:30:44.644Z,66.93
2023-04-24T02:31:44.647Z,66.93
2023-04-24T02:32:44.791Z,66.93
2023-04-24T02:33:44.615Z,66.93
2023-04-24T02:34:44.604Z,66.93
2023-04-24T02:35:44.595Z,66.93
2023-04-24T02:36:44.580Z,66.93
2023-04-24T02:37:44.566Z,66.93
2023-04-24T02:38:44.781Z,66.93
2023-04-24T02:39:44.716Z,66.93
2023-04-24T02:40:44.534Z,66.93
2023-04-24T02:41:44.521Z,66.93
2023-04-24T02:42:44.515Z,66.93
2023-04-24T02:43:44.591Z,66.93
2023-04-24T02:44:44.514Z,66.93
2023-04-24T02:45:44.526Z,66.93
2023-04-24T02:46:44.520Z,66.93
2023-04-24T02:47:44.517Z,66.93
2023-04-24T02:48:44.453Z,66.93
2023-04-24T02:49:44.793Z,66.93
2023-04-24T02:50:44.425Z,66.93
2023-04-24T02:51:44.566Z,66.93
2023-04-24T02:52:44.403Z,66.82
2023-04-24T02:53:44.394Z,66.82
2023-04-24T02:54:44.514Z,66.93
2023-04-24T02:55:44.376Z,66.82
2023-04-24T02:56:44.359Z,66.93
2023-04-24T02:57:44.351Z,66.93
2023-04-24T02:58:44.336Z,66.93
2023-04-24T02:59:44.710Z,66.82
2023-04-24T03:00:44.354Z,66.93
2023-04-24T03:01:44.428Z,66.82
2023-04-24T03:02:44.485Z,66.82
2023-04-24T03:03:44.402Z,66.93
2023-04-24T03:04:44.696Z,66.93
2023-04-24T03:05:44.265Z,66.93
2023-04-24T03:06:44.278Z,66.93
2023-04-24T03:07:44.240Z,66.82
2023-04-24T03:08:44.239Z,66.82
2023-04-24T03:09:44.664Z,66.82
2023-04-24T03:10:46.237Z,66.82
2023-04-24T03:11:44.195Z,66.82
2023-04-24T03:12:44.189Z,66.82
2023-04-24T03:13:44.172Z,66.82
2023-04-24T03:14:44.211Z,66.82
2023-04-24T03:15:44.321Z,66.93
2023-04-24T03:16:44.166Z,66.93
2023-04-24T03:17:44.249Z,66.82
2023-04-24T03:18:44.118Z,66.82
2023-04-24T03:19:44.935Z,66.82
2023-04-24T03:20:44.099Z,66.82
2023-04-24T03:21:44.090Z,66.82
2023-04-24T03:22:44.079Z,66.82
2023-04-24T03:23:44.065Z,66.93
2023-04-24T03:24:46.158Z,66.82
2023-04-24T03:25:45.886Z,66.82
2023-04-24T03:26:44.041Z,66.82
2023-04-24T03:27:44.027Z,66.82
2023-04-24T03:28:44.024Z,66.82
2023-04-24T03:29:44.381Z,66.82
2023-04-24T03:30:44.038Z,66.82
2023-04-24T03:31:44.014Z,66.82
2023-04-24T03:32:44.084Z,66.82
2023-04-24T03:33:43.981Z,66.82
2023-04-24T03:34:43.951Z,66.82
2023-04-24T03:35:43.972Z,66.82
2023-04-24T03:36:43.925Z,66.82
2023-04-24T03:37:43.913Z,66.82
2023-04-24T03:38:43.933Z,66.82
2023-04-24T03:39:44.306Z,66.82
2023-04-24T03:40:43.885Z,66.82
2023-04-24T03:41:43.869Z,66.82
2023-04-24T03:42:43.861Z,66.82
2023-04-24T03:43:44.789Z,66.82
2023-04-24T03:44:43.838Z,66.82
2023-04-24T03:45:43.876Z,66.82
2023-04-24T03:46:43.993Z,66.93
2023-04-24T03:47:43.881Z,66.82
2023-04-24T03:48:43.825Z,66.82
2023-04-24T03:49:45.030Z,66.82
2023-04-24T03:50:43.772Z,66.82
2023-04-24T03:51:43.771Z,66.82
2023-04-24T03:52:43.762Z,66.82
2023-04-24T03:53:43.748Z,66.82
2023-04-24T03:54:43.732Z,66.82
2023-04-24T03:55:44.569Z,66.82
2023-04-24T03:56:43.709Z,66.82
2023-04-24T03:57:43.700Z,66.82
2023-04-24T03:58:45.509Z,66.82
2023-04-24T03:59:43.921Z,66.82
2023-04-24T04:00:45.312Z,66.82
2023-04-24T04:01:44.277Z,66.82
2023-04-24T04:02:43.764Z,66.82
2023-04-24T04:03:43.980Z,66.82
2023-04-24T04:04:43.868Z,66.82
2023-04-24T04:05:43.613Z,66.82
2023-04-24T04:06:46.426Z,66.82
2023-04-24T04:07:43.587Z,66.82
2023-04-24T04:08:43.609Z,66.82
2023-04-24T04:09:43.776Z,66.82
2023-04-24T04:10:44.031Z,66.82
2023-04-24T04:11:43.643Z,66.82
2023-04-24T04:12:43.531Z,66.82
2023-04-24T04:13:43.525Z,66.82
2023-04-24T04:14:43.510Z,66.82
2023-04-24T04:15:43.559Z,66.82
2023-04-24T04:16:43.610Z,66.82
2023-04-24T04:17:44.717Z,66.82
2023-04-24T04:18:43.469Z,66.82
2023-04-24T04:19:43.569Z,66.82
2023-04-24T04:20:43.478Z,66.82
2023-04-24T04:21:45.831Z,66.82
2023-04-24T04:22:44.654Z,66.82
2023-04-24T04:23:43.435Z,66.82
2023-04-24T04:24:43.409Z,66.82
2023-04-24T04:25:43.392Z,66.82
2023-04-24T04:26:43.392Z,66.82
2023-04-24T04:27:43.373Z,66.82
2023-04-24T04:28:45.056Z,66.82
2023-04-24T04:29:43.819Z,66.82
2023-04-24T04:30:43.343Z,66.82
2023-04-24T04:31:43.428Z,66.82
2023-04-24T04:32:43.370Z,66.82
2023-04-24T04:33:44.822Z,66.82
2023-04-24T04:34:43.302Z,66.82
2023-04-24T04:35:43.288Z,66.82
2023-04-24T04:36:43.409Z,66.82
2023-04-24T04:37:43.270Z,66.82
2023-04-24T04:38:43.255Z,66.82
2023-04-24T04:39:43.525Z,66.82
2023-04-24T04:40:43.237Z,66.82
2023-04-24T04:41:43.226Z,66.82
2023-04-24T04:42:44.658Z,66.82
2023-04-24T04:43:44.062Z,66.82
2023-04-24T04:44:43.192Z,66.82
2023-04-24T04:45:43.192Z,66.82
2023-04-24T04:46:43.169Z,66.82
2023-04-24T04:47:45.419Z,66.82
2023-04-24T04:48:43.156Z,66.82
2023-04-24T04:49:43.354Z,66.82
2023-04-24T04:50:43.126Z,66.82
2023-04-24T04:51:44.777Z,66.82
2023-04-24T04:52:43.128Z,66.82
2023-04-24T04:53:43.095Z,66.82
2023-04-24T04:54:43.088Z,66.82
2023-04-24T04:55:43.094Z,66.82
2023-04-24T04:56:43.934Z,66.82
2023-04-24T04:57:43.077Z,66.82
2023-04-24T04:58:43.039Z,66.82
2023-04-24T04:59:43.244Z,66.82
2023-04-24T05:00:43.016Z,66.82
2023-04-24T05:01:43.202Z,66.82
2023-04-24T05:02:44.827Z,66.82
2023-04-24T05:03:43.127Z,66.82
2023-04-24T05:04:43.298Z,66.82
2023-04-24T05:05:42.970Z,66.82
2023-04-24T05:06:43.459Z,66.82
2023-04-24T05:07:42.939Z,66.82
2023-04-24T05:08:42.955Z,66.82
2023-04-24T05:09:43.092Z,66.82
2023-04-24T05:10:42.910Z,66.82
2023-04-24T05:11:42.902Z,66.82
2023-04-24T05:12:46.253Z,66.82
2023-04-24T05:13:42.880Z,66.82
2023-04-24T05:14:42.868Z,66.82
2023-04-24T05:15:42.862Z,66.82
2023-04-24T05:16:42.921Z,66.82
2023-04-24T05:17:43.027Z,66.82
2023-04-24T05:18:42.832Z,66.82
2023-04-24T05:19:42.984Z,66.82
2023-04-24T05:20:42.799Z,66.82
2023-04-24T05:21:42.791Z,66.82
2023-04-24T05:22:42.992Z,66.82
2023-04-24T05:23:43.394Z,66.82
2023-04-24T05:24:42.858Z,66.72
2023-04-24T05:25:42.749Z,66.82
2023-04-24T05:26:42.736Z,66.82
2023-04-24T05:27:42.728Z,66.82
2023-04-24T05:28:43.030Z,66.82
2023-04-24T05:29:43.086Z,66.82
2023-04-24T05:30:42.695Z,66.82
2023-04-24T05:31:42.730Z,66.82
2023-04-24T05:32:42.712Z,66.82
2023-04-24T05:33:44.513Z,66.82
2023-04-24T05:34:44.198Z,66.82
2023-04-24T05:35:44.281Z,66.82
2023-04-24T05:36:42.628Z,66.82
2023-04-24T05:37:42.616Z,66.82
2023-04-24T05:38:42.609Z,66.82
2023-04-24T05:39:42.858Z,66.82
2023-04-24T05:40:42.634Z,66.82
2023-04-24T05:41:42.578Z,66.82
2023-04-24T05:42:42.568Z,66.82
2023-04-24T05:43:42.552Z,66.82
2023-04-24T05:44:42.541Z,66.72
2023-04-24T05:45:42.534Z,66.72
2023-04-24T05:46:44.095Z,66.72
2023-04-24T05:47:42.550Z,66.72
2023-04-24T05:48:42.499Z,66.72
2023-04-24T05:49:42.677Z,66.72
2023-04-24T05:50:42.476Z,66.72
2023-04-24T05:51:44.371Z,66.72
2023-04-24T05:52:44.231Z,66.72
2023-04-24T05:53:42.456Z,66.72
2023-04-24T05:54:42.434Z,66.72
2023-04-24T05:55:44.340Z,66.72
2023-04-24T05:56:43.270Z,66.72
2023-04-24T05:57:42.409Z,66.72
2023-04-24T05:58:42.411Z,66.72
2023-04-24T05:59:44.431Z,66.72
2023-04-24T06:00:42.370Z,66.72
2023-04-24T06:01:42.368Z,66.72
2023-04-24T06:02:42.573Z,66.72
2023-04-24T06:03:42.504Z,66.72
2023-04-24T06:04:43.983Z,66.72
2023-04-24T06:05:42.307Z,66.72
2023-04-24T06:06:43.890Z,66.72
2023-04-24T06:07:42.290Z,66.72
2023-04-24T06:08:42.286Z,66.72
2023-04-24T06:09:44.138Z,66.72
2023-04-24T06:10:42.275Z,66.82
2023-04-24T06:11:42.384Z,66.82
2023-04-24T06:12:42.236Z,66.82
2023-04-24T06:13:42.228Z,66.93
2023-04-24T06:14:42.227Z,66.82
2023-04-24T06:15:44.008Z,66.82
2023-04-24T06:16:44.023Z,66.82
2023-04-24T06:17:42.207Z,67.02
2023-04-24T06:18:42.179Z,67.02
2023-04-24T06:19:42.411Z,67.02
2023-04-24T06:20:42.162Z,67.02
2023-04-24T06:21:43.857Z,67.02
2023-04-24T06:22:42.128Z,67.02
2023-04-24T06:23:45.727Z,67.02
2023-04-24T06:24:42.104Z,67.02
2023-04-24T06:25:42.104Z,67.02
2023-04-24T06:26:42.082Z,67.02
2023-04-24T06:27:42.094Z,66.93
2023-04-24T06:28:42.066Z,66.93
2023-04-24T06:29:44.004Z,67.02
2023-04-24T06:30:42.037Z,66.93
2023-04-24T06:31:43.724Z,67.02
2023-04-24T06:32:42.068Z,67.02
2023-04-24T06:33:42.026Z,66.89
2023-04-24T06:34:42.024Z,66.89
2023-04-24T06:35:41.983Z,66.99
2023-04-24T06:36:41.983Z,67.10
2023-04-24T06:37:41.977Z,66.99
2023-04-24T06:38:41.987Z,67.10
2023-04-24T06:39:42.243Z,67.10
2023-04-24T06:40:41.934Z,67.10
2023-04-24T06:41:41.920Z,66.99
2023-04-24T06:42:41.912Z,66.99
2023-04-24T06:43:41.942Z,67.19
2023-04-24T06:44:42.246Z,67.19
2023-04-24T06:45:41.883Z,67.30
2023-04-24T06:46:42.036Z,66.99
2023-04-24T06:47:41.876Z,67.10
2023-04-24T06:48:41.855Z,67.19
2023-04-24T06:49:42.469Z,67.30
2023-04-24T06:50:41.822Z,66.89
2023-04-24T06:51:42.128Z,67.10
2023-04-24T06:52:41.800Z,66.79
2023-04-24T06:53:41.788Z,66.79
2023-04-24T06:54:41.774Z,66.79
2023-04-24T06:55:41.766Z,66.79
2023-04-24T06:56:42.043Z,66.79
2023-04-24T06:57:41.744Z,66.99
2023-04-24T06:58:41.998Z,67.10
2023-04-24T06:59:41.972Z,67.19
2023-04-24T07:00:41.709Z,67.30
2023-04-24T07:01:41.792Z,67.40
2023-04-24T07:02:41.928Z,67.40
2023-04-24T07:03:41.916Z,67.50
2023-04-24T07:04:41.983Z,67.30
2023-04-24T07:05:41.656Z,67.50
2023-04-24T07:06:41.664Z,67.60
2023-04-24T07:07:41.673Z,67.60
2023-04-24T07:08:41.857Z,67.60
2023-04-24T07:09:41.772Z,67.50
2023-04-24T07:10:41.602Z,67.30
2023-04-24T07:11:41.597Z,67.40
2023-04-24T07:12:41.771Z,67.60
2023-04-24T07:13:41.588Z,67.60
2023-04-24T07:14:41.559Z,67.70
2023-04-24T07:15:41.691Z,67.70
2023-04-24T07:16:41.594Z,67.19
2023-04-24T07:17:41.999Z,67.30
2023-04-24T07:18:41.555Z,67.30
2023-04-24T07:19:41.668Z,67.40
2023-04-24T07:20:41.502Z,67.50
2023-04-24T07:21:41.485Z,67.50
2023-04-24T07:22:41.480Z,67.60
2023-04-24T07:23:41.497Z,67.60
2023-04-24T07:24:41.461Z,67.70
2023-04-24T07:25:42.287Z,67.19
2023-04-24T07:26:42.533Z,67.40
2023-04-24T07:27:41.421Z,67.40
2023-04-24T07:28:41.412Z,67.10
2023-04-24T07:29:41.765Z,66.99
2023-04-24T07:30:41.387Z,66.89
2023-04-24T07:31:41.511Z,66.89
2023-04-24T07:32:43.172Z,66.89
2023-04-24T07:33:41.384Z,66.89
2023-04-24T07:34:41.358Z,66.89
2023-04-24T07:35:41.332Z,66.79
2023-04-24T07:36:41.335Z,66.89
2023-04-24T07:37:42.959Z,66.99
2023-04-24T07:38:43.165Z,66.99
2023-04-24T07:39:41.570Z,67.19
2023-04-24T07:40:41.282Z,67.40
2023-04-24T07:41:41.271Z,67.30
2023-04-24T07:42:41.255Z,67.30
2023-04-24T07:43:42.234Z,67.16
2023-04-24T07:44:41.241Z,66.96
2023-04-24T07:45:41.222Z,66.96
2023-04-24T07:46:41.255Z,66.96
2023-04-24T07:47:41.262Z,66.96
2023-04-24T07:48:41.208Z,66.96
2023-04-24T07:49:41.495Z,66.86
2023-04-24T07:50:41.198Z,66.86
2023-04-24T07:51:41.164Z,66.76
2023-04-24T07:52:41.142Z,66.76
2023-04-24T07:53:41.135Z,66.66
2023-04-24T07:54:42.682Z,66.56
2023-04-24T07:55:41.112Z,66.56
2023-04-24T07:56:41.110Z,66.56
2023-04-24T07:57:41.117Z,66.46
2023-04-24T07:58:41.183Z,66.46
2023-04-24T07:59:41.189Z,66.46
2023-04-24T08:00:41.059Z,66.56
2023-04-24T08:01:41.051Z,66.66
2023-04-24T08:02:41.189Z,66.66
2023-04-24T08:03:41.355Z,66.66
2023-04-24T08:04:41.926Z,66.66
2023-04-24T08:05:41.268Z,66.76
2023-04-24T08:06:40.993Z,66.96
2023-04-24T08:07:40.992Z,66.96
2023-04-24T08:08:42.118Z,67.07
2023-04-24T08:09:41.026Z,67.07
2023-04-24T08:10:40.949Z,67.07
2023-04-24T08:11:40.940Z,67.07
2023-04-24T08:12:40.931Z,67.07
2023-04-24T08:13:40.954Z,67.07
2023-04-24T08:14:41.108Z,67.07
2023-04-24T08:15:40.984Z,67.07
2023-04-24T08:16:40.996Z,66.96
2023-04-24T08:17:41.251Z,66.96
2023-04-24T08:18:40.861Z,66.96
2023-04-24T08:19:41.153Z,66.83
2023-04-24T08:20:41.002Z,66.73
2023-04-24T08:21:40.826Z,66.63
2023-04-24T08:22:40.844Z,66.53
2023-04-24T08:23:40.807Z,66.42
2023-04-24T08:24:40.804Z,66.42
2023-04-24T08:25:40.814Z,66.19
2023-04-24T08:26:40.800Z,66.09
2023-04-24T08:27:40.816Z,65.99
2023-04-24T08:28:40.760Z,65.89
2023-04-24T08:29:40.839Z,65.79
2023-04-24T08:30:40.743Z,65.69
2023-04-24T08:31:40.784Z,65.59
2023-04-24T08:32:40.733Z,65.46
2023-04-24T08:33:40.698Z,65.46
2023-04-24T08:34:41.716Z,65.46
2023-04-24T08:35:40.700Z,65.46
2023-04-24T08:36:47.083Z,65.36
2023-04-24T08:37:41.651Z,65.36
2023-04-24T08:38:42.699Z,65.26
2023-04-24T08:39:40.721Z,65.16
2023-04-24T08:40:40.637Z,65.16
2023-04-24T08:41:40.614Z,65.06
2023-04-24T08:42:40.626Z,65.06
2023-04-24T08:43:40.595Z,65.06
2023-04-24T08:44:40.581Z,65.06
2023-04-24T08:45:40.640Z,65.06
2023-04-24T08:46:40.607Z,65.06
2023-04-24T08:47:40.740Z,65.06
2023-04-24T08:48:40.537Z,64.95
2023-04-24T08:49:40.565Z,64.95
2023-04-24T08:50:40.516Z,64.92
2023-04-24T08:51:40.543Z,64.92
2023-04-24T08:52:40.497Z,64.95
2023-04-24T08:53:40.640Z,65.02
2023-04-24T08:54:41.058Z,65.02
2023-04-24T08:55:40.471Z,64.92
2023-04-24T08:56:40.455Z,64.92
2023-04-24T08:57:40.478Z,64.92
2023-04-24T08:58:40.434Z,65.02
2023-04-24T08:59:40.477Z,65.02
2023-04-24T09:00:40.424Z,65.02
2023-04-24T09:01:40.889Z,64.92
2023-04-24T09:02:40.462Z,64.92
2023-04-24T09:03:40.480Z,65.02
2023-04-24T09:04:40.507Z,65.02
2023-04-24T09:05:40.358Z,65.06
2023-04-24T09:06:40.349Z,64.92
2023-04-24T09:07:40.524Z,64.92
2023-04-24T09:08:40.332Z,65.12
2023-04-24T09:09:40.344Z,65.12
2023-04-24T09:10:40.308Z,65.16
2023-04-24T09:11:40.292Z,65.26
2023-04-24T09:12:40.728Z,65.26
2023-04-24T09:13:40.274Z,65.26
2023-04-24T09:14:40.264Z,65.26
2023-04-24T09:15:40.258Z,65.26
2023-04-24T09:16:40.279Z,65.26
2023-04-24T09:17:40.818Z,65.26
2023-04-24T09:18:40.217Z,65.26
2023-04-24T09:19:40.399Z,65.26
2023-04-24T09:20:40.200Z,65.26
2023-04-24T09:21:40.189Z,65.26
2023-04-24T09:22:41.953Z,65.26
2023-04-24T09:23:40.191Z,65.26
2023-04-24T09:24:40.190Z,65.26
2023-04-24T09:25:40.145Z,65.26
2023-04-24T09:26:40.150Z,65.26
2023-04-24T09:27:40.162Z,65.26
2023-04-24T09:28:40.117Z,65.26
2023-04-24T09:29:40.101Z,65.36
2023-04-24T09:30:40.088Z,65.36
2023-04-24T09:31:40.161Z,65.36
2023-04-24T09:32:40.372Z,65.36
2023-04-24T09:33:40.816Z,65.36
2023-04-24T09:34:40.052Z,65.36
2023-04-24T09:35:40.040Z,65.36
2023-04-24T09:36:40.024Z,65.36
2023-04-24T09:37:40.018Z,65.36
2023-04-24T09:38:40.005Z,65.36
2023-04-24T09:39:40.361Z,65.46
2023-04-24T09:40:41.623Z,65.46
2023-04-24T09:41:39.998Z,65.46
2023-04-24T09:42:39.967Z,65.46
2023-04-24T09:43:39.975Z,65.46
2023-04-24T09:44:39.949Z,65.46
2023-04-24T09:45:39.960Z,65.46
2023-04-24T09:46:39.937Z,65.46
2023-04-24T09:47:39.908Z,65.46
2023-04-24T09:48:39.907Z,65.59
2023-04-24T09:49:39.911Z,65.59
2023-04-24T09:50:39.893Z,65.59
2023-04-24T09:51:39.884Z,65.59
2023-04-24T09:52:39.855Z,65.59
2023-04-24T09:53:39.842Z,65.59
2023-04-24T09:54:39.863Z,65.59
2023-04-24T09:55:39.846Z,65.59
2023-04-24T09:56:39.817Z,65.59
2023-04-24T09:57:39.803Z,65.59
2023-04-24T09:58:39.793Z,65.59
2023-04-24T09:59:39.790Z,65.59
2023-04-24T10:00:40.012Z,65.59
2023-04-24T10:01:39.788Z,65.59
2023-04-24T10:02:39.854Z,65.69
2023-04-24T10:03:39.794Z,65.69
2023-04-24T10:04:39.789Z,65.69
2023-04-24T10:05:39.815Z,65.69
2023-04-24T10:06:39.713Z,65.69
2023-04-24T10:07:39.694Z,65.69
2023-04-24T10:08:39.702Z,65.69
2023-04-24T10:09:39.672Z,65.69
2023-04-24T10:10:40.074Z,65.69
2023-04-24T10:11:39.692Z,65.69
2023-04-24T10:12:39.642Z,65.69
2023-04-24T10:13:39.666Z,65.69
2023-04-24T10:14:39.622Z,65.69
2023-04-24T10:15:39.663Z,65.69
2023-04-24T10:16:39.597Z,65.69
2023-04-24T10:17:40.037Z,65.69
2023-04-24T10:18:39.576Z,65.69
2023-04-24T10:19:39.572Z,65.69
2023-04-24T10:20:39.558Z,65.69
2023-04-24T10:21:39.569Z,65.69
2023-04-24T10:22:39.532Z,65.79
2023-04-24T10:23:39.544Z,65.79
2023-04-24T10:24:39.518Z,65.79
2023-04-24T10:25:39.514Z,65.79
2023-04-24T10:26:39.816Z,65.79
2023-04-24T10:27:39.507Z,65.79
2023-04-24T10:28:39.479Z,65.79
2023-04-24T10:29:39.459Z,65.79
2023-04-24T10:30:39.451Z,65.79
2023-04-24T10:31:39.952Z,65.79
2023-04-24T10:32:39.526Z,65.79
2023-04-24T10:33:39.419Z,65.89
2023-04-24T10:34:39.406Z,65.89
2023-04-24T10:35:39.617Z,65.89
2023-04-24T10:36:39.384Z,65.89
2023-04-24T10:37:39.389Z,65.89
2023-04-24T10:38:39.363Z,65.89
2023-04-24T10:39:39.355Z,65.89
2023-04-24T10:40:39.439Z,65.89
2023-04-24T10:41:39.332Z,65.89
2023-04-24T10:42:39.319Z,65.89
2023-04-24T10:43:39.645Z,65.89
2023-04-24T10:44:39.320Z,66.02
2023-04-24T10:45:39.301Z,66.02
2023-04-24T10:46:39.325Z,66.02
2023-04-24T10:47:39.296Z,66.02
2023-04-24T10:48:40.175Z,66.02
2023-04-24T10:49:39.242Z,66.02
2023-04-24T10:50:39.238Z,66.02
2023-04-24T10:51:39.651Z,66.02
2023-04-24T10:52:39.212Z,66.02
2023-04-24T10:53:39.200Z,66.02
2023-04-24T10:54:39.194Z,66.02
2023-04-24T10:55:39.195Z,66.02
2023-04-24T10:56:40.794Z,66.13
2023-04-24T10:57:39.165Z,66.13
2023-04-24T10:58:39.152Z,66.13
2023-04-24T10:59:39.281Z,66.13
2023-04-24T11:00:39.158Z,66.13
2023-04-24T11:01:39.116Z,66.13
2023-04-24T11:02:41.021Z,66.13
2023-04-24T11:03:39.508Z,66.13
2023-04-24T11:04:39.151Z,66.13
2023-04-24T11:05:39.069Z,66.13
2023-04-24T11:06:39.069Z,66.13
2023-04-24T11:07:39.048Z,66.13
2023-04-24T11:08:39.068Z,66.13
2023-04-24T11:09:39.027Z,66.13
2023-04-24T11:10:39.019Z,66.13
2023-04-24T11:11:39.005Z,66.13
2023-04-24T11:12:38.999Z,66.13
2023-04-24T11:13:38.982Z,66.13
2023-04-24T11:14:40.038Z,66.13
2023-04-24T11:15:38.988Z,66.22
2023-04-24T11:16:39.019Z,66.22
2023-04-24T11:17:39.159Z,66.22
2023-04-24T11:18:38.941Z,66.22
2023-04-24T11:19:39.277Z,66.22
2023-04-24T11:20:38.905Z,66.22
2023-04-24T11:21:38.930Z,66.22
2023-04-24T11:22:38.895Z,66.22
2023-04-24T11:23:38.885Z,66.22
2023-04-24T11:24:38.866Z,66.22
2023-04-24T11:25:38.853Z,66.22
2023-04-24T11:26:38.953Z,66.22
2023-04-24T11:27:40.183Z,66.22
2023-04-24T11:28:40.214Z,66.22
2023-04-24T11:29:38.822Z,66.22
2023-04-24T11:30:38.797Z,66.33
2023-04-24T11:31:39.012Z,66.33
2023-04-24T11:32:39.010Z,66.33
2023-04-24T11:33:38.768Z,66.33
2023-04-24T11:34:38.760Z,66.33
2023-04-24T11:35:38.749Z,66.33
2023-04-24T11:36:38.771Z,66.33
2023-04-24T11:37:38.728Z,66.33
2023-04-24T11:38:38.835Z,66.33
2023-04-24T11:39:38.708Z,66.33
2023-04-24T11:40:38.691Z,66.33
2023-04-24T11:41:38.688Z,66.33
2023-04-24T11:42:38.670Z,66.33
2023-04-24T11:43:38.662Z,66.33
2023-04-24T11:44:38.668Z,66.33
2023-04-24T11:45:38.672Z,66.33
2023-04-24T11:46:38.719Z,66.33
2023-04-24T11:47:39.789Z,66.33
2023-04-24T11:48:38.627Z,66.33
2023-04-24T11:49:38.603Z,66.42
2023-04-24T11:50:39.126Z,66.42
2023-04-24T11:51:51.490Z,66.42
2023-04-24T11:52:39.563Z,66.42
2023-04-24T11:53:38.562Z,66.42
2023-04-24T11:54:38.599Z,66.42
2023-04-24T11:55:39.393Z,66.42
2023-04-24T11:56:38.794Z,66.42
2023-04-24T11:57:38.574Z,66.42
2023-04-24T11:58:38.503Z,66.42
2023-04-24T11:59:38.490Z,66.42
2023-04-24T12:00:38.481Z,66.42
2023-04-24T12:01:38.480Z,66.42
2023-04-24T12:02:40.142Z,66.42
2023-04-24T12:03:40.037Z,66.42
2023-04-24T12:04:38.747Z,66.42
2023-04-24T12:05:38.525Z,66.53
2023-04-24T12:06:38.440Z,66.42
2023-04-24T12:07:38.402Z,66.42
2023-04-24T12:08:40.004Z,66.42
2023-04-24T12:09:38.382Z,66.53
2023-04-24T12:10:38.372Z,66.53
2023-04-24T12:11:38.365Z,66.53
2023-04-24T12:12:38.355Z,66.53
2023-04-24T12:13:38.594Z,66.53
2023-04-24T12:14:38.330Z,66.53
2023-04-24T12:15:38.338Z,66.53
2023-04-24T12:16:38.334Z,66.53
2023-04-24T12:17:38.336Z,66.53
2023-04-24T12:18:38.522Z,66.53
2023-04-24T12:19:38.301Z,66.53
2023-04-24T12:20:38.329Z,66.53
2023-04-24T12:21:38.254Z,66.42
2023-04-24T12:22:38.243Z,66.53
2023-04-24T12:23:38.347Z,66.42
2023-04-24T12:24:38.226Z,66.42
2023-04-24T12:25:38.471Z,66.42
2023-04-24T12:26:38.230Z,66.42
2023-04-24T12:27:38.190Z,66.42
2023-04-24T12:28:39.404Z,66.42
2023-04-24T12:29:38.167Z,66.42
2023-04-24T12:30:38.156Z,66.46
2023-04-24T12:31:38.187Z,66.46
2023-04-24T12:32:38.161Z,66.42
2023-04-24T12:33:40.422Z,66.46
2023-04-24T12:34:38.114Z,66.46
2023-04-24T12:35:38.135Z,66.46
2023-04-24T12:36:38.092Z,66.46
2023-04-24T12:37:40.415Z,66.46
2023-04-24T12:38:40.390Z,66.46
2023-04-24T12:39:38.059Z,66.46
2023-04-24T12:40:38.146Z,66.56
2023-04-24T12:41:38.038Z,66.56
2023-04-24T12:42:38.070Z,66.56
2023-04-24T12:43:40.382Z,66.56
2023-04-24T12:44:38.124Z,66.56
2023-04-24T12:45:38.076Z,66.56
2023-04-24T12:46:38.099Z,66.56
2023-04-24T12:47:38.057Z,66.56
2023-04-24T12:48:40.340Z,66.56
2023-04-24T12:49:37.959Z,66.56
2023-04-24T12:50:40.265Z,66.56
2023-04-24T12:51:37.974Z,66.56
2023-04-24T12:52:37.927Z,66.56